createdAt,value
2023-02-24T00:02:14.946Z,100496.00
2023-02-24T00:04:41.853Z,100503.00
2023-02-24T00:07:12.969Z,100501.00
2023-02-24T00:09:40.469Z,100501.00
2023-02-24T00:12:13.087Z,100492.00
2023-02-24T00:14:44.046Z,100478.00
2023-02-24T00:17:14.588Z,100485.00
2023-02-24T00:19:41.895Z,100491.00
2023-02-24T00:22:09.674Z,100483.00
2023-02-24T00:24:36.553Z,100484.00
2023-02-24T00:27:11.289Z,100490.00
2023-02-24T00:29:40.136Z,100490.00
2023-02-24T00:32:12.339Z,100486.00
2023-02-24T00:34:39.504Z,100471.00
2023-02-24T00:37:09.297Z,100469.00
2023-02-24T00:39:41.107Z,100466.00
2023-02-24T00:42:08.044Z,100466.00
2023-02-24T00:44:39.533Z,100471.00
2023-02-24T00:47:10.584Z,100466.00
2023-02-24T00:49:42.053Z,100466.00
2023-02-24T00:52:17.043Z,100471.00
2023-02-24T00:54:46.016Z,100464.00
2023-02-24T00:57:12.969Z,100464.00
2023-02-24T00:59:40.040Z,100454.00
2023-02-24T01:02:07.683Z,100462.00
2023-02-24T01:04:34.957Z,100467.00
2023-02-24T01:07:02.266Z,100462.00
2023-02-24T01:09:32.056Z,100460.00
2023-02-24T01:12:18.505Z,100462.00
2023-02-24T01:14:48.256Z,100452.00
2023-02-24T01:17:18.253Z,100462.00
2023-02-24T01:19:49.092Z,100452.00
2023-02-24T01:22:18.326Z,100452.00
2023-02-24T01:24:45.783Z,100454.00
2023-02-24T01:27:17.705Z,100458.00
2023-02-24T01:29:46.327Z,100456.00
2023-02-24T01:32:21.691Z,100450.00
2023-02-24T01:34:52.335Z,100448.00
2023-02-24T01:37:20.382Z,100445.00
2023-02-24T01:39:48.045Z,100455.00
2023-02-24T01:42:21.683Z,100455.00
2023-02-24T01:44:48.327Z,100445.00
2023-02-24T01:47:20.820Z,100443.00
2023-02-24T01:49:54.445Z,100447.00
2023-02-24T01:52:32.417Z,100443.00
2023-02-24T01:55:29.347Z,100442.00
2023-02-24T01:57:58.773Z,100439.00
2023-02-24T02:00:38.285Z,100436.00
2023-02-24T02:03:26.684Z,100439.00
2023-02-24T02:06:01.074Z,100445.00
2023-02-24T02:08:29.888Z,100428.00
2023-02-24T02:11:04.442Z,100437.00
2023-02-24T02:13:35.971Z,100431.00
2023-02-24T02:16:26.236Z,100424.00
2023-02-24T02:19:41.884Z,100439.00
2023-02-24T02:22:49.597Z,100437.00
2023-02-24T02:26:04.727Z,100430.00
2023-02-24T02:29:23.233Z,100419.00
2023-02-24T02:32:31.404Z,100428.00
2023-02-24T02:35:37.800Z,100423.00
2023-02-24T02:38:27.874Z,100426.00
2023-02-24T02:41:40.198Z,100430.00
2023-02-24T02:44:39.719Z,100418.00
2023-02-24T02:47:18.231Z,100430.00
2023-02-24T02:49:54.908Z,100414.00
2023-02-24T02:52:45.489Z,100422.00
2023-02-24T02:55:23.894Z,100420.00
2023-02-24T02:57:55.194Z,100415.00
2023-02-24T03:00:29.330Z,100417.00
2023-02-24T03:03:11.444Z,100421.00
2023-02-24T03:05:49.410Z,100418.00
2023-02-24T03:08:25.795Z,100420.00
2023-02-24T03:10:55.360Z,100418.00
2023-02-24T03:13:30.291Z,100419.00
2023-02-24T03:16:01.762Z,100399.00
2023-02-24T03:18:35.432Z,100416.00
2023-02-24T03:21:49.986Z,100404.00
2023-02-24T03:24:17.646Z,100407.00
2023-02-24T03:27:13.378Z,100401.00
2023-02-24T03:29:51.011Z,100391.00
2023-02-24T03:32:33.359Z,100397.00
2023-02-24T03:35:09.150Z,100389.00
2023-02-24T03:37:36.944Z,100391.00
2023-02-24T03:40:14.879Z,100388.00
2023-02-24T03:42:52.506Z,100378.00
2023-02-24T03:45:23.127Z,100373.00
2023-02-24T03:47:54.013Z,100375.00
2023-02-24T03:50:27.141Z,100378.00
2023-02-24T03:53:30.619Z,100384.00
2023-02-24T03:56:11.363Z,100377.00
2023-02-24T03:59:16.361Z,100367.00
2023-02-24T04:02:22.129Z,100356.00
2023-02-24T04:05:03.775Z,100355.00
2023-02-24T04:07:55.182Z,100355.00
2023-02-24T04:10:29.526Z,100345.00
2023-02-24T04:13:10.310Z,100345.00
2023-02-24T04:15:58.882Z,100340.00
2023-02-24T04:18:31.871Z,100343.00
2023-02-24T04:21:02.955Z,100335.00
2023-02-24T04:23:39.922Z,100333.00
2023-02-24T04:26:09.918Z,100335.00
2023-02-24T04:28:36.776Z,100323.00
2023-02-24T04:31:10.692Z,100325.00
2023-02-24T04:33:40.349Z,100322.00
2023-02-24T04:36:09.091Z,100331.00
2023-02-24T04:38:36.733Z,100310.00
2023-02-24T04:41:03.675Z,100317.00
2023-02-24T04:43:30.591Z,100306.00
2023-02-24T04:45:57.459Z,100319.00
2023-02-24T04:48:24.188Z,100320.00
2023-02-24T04:50:55.085Z,100310.00
2023-02-24T04:53:27.176Z,100298.00
2023-02-24T04:55:56.238Z,100303.00
2023-02-24T04:58:29.342Z,100305.00
2023-02-24T05:00:56.546Z,100296.00
2023-02-24T05:03:28.476Z,100293.00
2023-02-24T05:06:01.703Z,100292.00
2023-02-24T05:08:30.599Z,100300.00
2023-02-24T05:10:58.603Z,100293.00
2023-02-24T05:13:29.587Z,100280.00
2023-02-24T05:16:02.968Z,100280.00
2023-02-24T05:18:35.950Z,100281.00
2023-02-24T05:21:30.073Z,100271.00
2023-02-24T05:24:06.337Z,100273.00
2023-02-24T05:26:36.191Z,100269.00
2023-02-24T05:29:05.952Z,100266.00
2023-02-24T05:31:33.038Z,100269.00
2023-02-24T05:34:06.778Z,100256.00
2023-02-24T05:36:41.545Z,100266.00
2023-02-24T05:39:12.737Z,100256.00
2023-02-24T05:41:42.972Z,100263.00
2023-02-24T05:44:16.533Z,100258.00
2023-02-24T05:46:45.995Z,100255.00
2023-02-24T05:49:23.204Z,100258.00
2023-02-24T05:51:55.476Z,100252.00
2023-02-24T05:54:32.460Z,100241.00
2023-02-24T05:57:03.652Z,100246.00
2023-02-24T05:59:33.159Z,100233.00
2023-02-24T06:02:11.301Z,100234.00
2023-02-24T06:04:51.356Z,100222.00
2023-02-24T06:07:24.858Z,100232.00
2023-02-24T06:09:56.598Z,100237.00
2023-02-24T06:12:30.189Z,100212.00
2023-02-24T06:14:59.977Z,100218.00
2023-02-24T06:17:28.202Z,100224.00
2023-02-24T06:19:55.696Z,100209.00
2023-02-24T06:22:25.841Z,100214.00
2023-02-24T06:24:55.215Z,100214.00
2023-02-24T06:27:24.573Z,100208.00
2023-02-24T06:29:54.530Z,100208.00
2023-02-24T06:32:24.813Z,100204.00
2023-02-24T06:34:53.778Z,100204.00
2023-02-24T06:37:22.801Z,100211.00
2023-02-24T06:39:49.643Z,100200.00
2023-02-24T06:42:16.528Z,100206.00
2023-02-24T06:44:43.278Z,100192.00
2023-02-24T06:47:14.101Z,100197.00
2023-02-24T06:49:42.906Z,100186.00
2023-02-24T06:52:11.568Z,100199.00
2023-02-24T06:54:38.457Z,100190.00
2023-02-24T06:57:05.220Z,100179.00
2023-02-24T06:59:32.214Z,100192.00
2023-02-24T07:02:01.920Z,100181.00
2023-02-24T07:04:29.806Z,100175.00
2023-02-24T07:07:02.881Z,100173.00
2023-02-24T07:09:31.222Z,100181.00
2023-02-24T07:11:58.741Z,100166.00
2023-02-24T07:14:30.581Z,100165.00
2023-02-24T07:16:59.403Z,100179.00
2023-02-24T07:19:29.787Z,100173.00
2023-02-24T07:22:02.031Z,100160.00
2023-02-24T07:24:33.678Z,100158.00
2023-02-24T07:27:08.422Z,100161.00
2023-02-24T07:29:37.796Z,100150.00
2023-02-24T07:32:08.665Z,100151.00
2023-02-24T07:34:39.687Z,100138.00
2023-02-24T07:37:08.744Z,100147.00
2023-02-24T07:39:37.544Z,100140.00
2023-02-24T07:42:07.537Z,100131.00
2023-02-24T07:44:34.348Z,100133.00
2023-02-24T07:47:01.173Z,100141.00
2023-02-24T07:49:30.190Z,100131.00
2023-02-24T07:51:58.022Z,100112.00
2023-02-24T07:54:29.994Z,100115.00
2023-02-24T07:56:59.256Z,100119.00
2023-02-24T07:59:33.021Z,100110.00
2023-02-24T08:02:04.643Z,100108.00
2023-02-24T08:04:33.692Z,100103.00
2023-02-24T08:07:03.364Z,100076.00
2023-02-24T08:09:46.009Z,100086.00
2023-02-24T08:12:22.731Z,100080.00
2023-02-24T08:14:52.875Z,100080.00
2023-02-24T08:17:26.147Z,100079.00
2023-02-24T08:20:13.974Z,100054.00
2023-02-24T08:22:44.316Z,100050.00
2023-02-24T08:25:18.706Z,100053.00
2023-02-24T08:28:07.014Z,100042.00
2023-02-24T08:30:39.609Z,100046.00
2023-02-24T08:33:10.484Z,100043.00
2023-02-24T08:35:44.741Z,100035.00
2023-02-24T08:38:17.050Z,100038.00
2023-02-24T08:40:50.495Z,100032.00
2023-02-24T08:43:30.755Z,100027.00
2023-02-24T08:46:18.194Z,100022.00
2023-02-24T08:48:55.514Z,100017.00
2023-02-24T08:51:35.633Z,100006.00
2023-02-24T08:54:11.272Z,100015.00
2023-02-24T08:56:43.444Z,99999.00
2023-02-24T08:59:29.129Z,99994.00
2023-02-24T09:02:17.370Z,99997.00
2023-02-24T09:04:59.438Z,99996.00
2023-02-24T09:07:35.323Z,99994.00
2023-02-24T09:10:05.618Z,99989.00
2023-02-24T09:12:32.362Z,99976.00
2023-02-24T09:15:04.600Z,99974.00
2023-02-24T09:17:49.650Z,99960.00
2023-02-24T09:20:25.892Z,99953.00
2023-02-24T09:23:00.536Z,99968.00
2023-02-24T09:25:40.957Z,99960.00
2023-02-24T09:28:24.557Z,99954.00
2023-02-24T09:30:58.540Z,99963.00
2023-02-24T09:33:41.647Z,99954.00
2023-02-24T09:36:20.690Z,99953.00
2023-02-24T09:39:01.744Z,99940.00
2023-02-24T09:41:54.552Z,99947.00
2023-02-24T09:44:40.152Z,99941.00
2023-02-24T09:47:57.315Z,99933.00
2023-02-24T09:51:03.585Z,99923.00
2023-02-24T09:53:49.264Z,99938.00
2023-02-24T09:56:42.634Z,99925.00
2023-02-24T10:00:00.841Z,99911.00
2023-02-24T10:02:44.282Z,99905.00
2023-02-24T10:05:29.014Z,99907.00
2023-02-24T10:07:58.102Z,99894.00
2023-02-24T10:10:35.779Z,99909.00
2023-02-24T10:13:30.353Z,99904.00
2023-02-24T10:16:10.044Z,99896.00
2023-02-24T10:19:14.958Z,99886.00
2023-02-24T10:22:27.439Z,99888.00
2023-02-24T10:25:39.509Z,99883.00
2023-02-24T10:28:39.558Z,99884.00
2023-02-24T10:31:27.010Z,99874.00
2023-02-24T10:34:06.393Z,99871.00
2023-02-24T10:36:38.010Z,99857.00
2023-02-24T10:39:26.537Z,99854.00
2023-02-24T10:42:18.185Z,99853.00
2023-02-24T10:45:01.276Z,99843.00
2023-02-24T10:47:31.335Z,99850.00
2023-02-24T10:50:05.520Z,99834.00
2023-02-24T10:53:10.759Z,99838.00
2023-02-24T10:55:47.854Z,99837.00
2023-02-24T10:58:38.151Z,99825.00
2023-02-24T11:01:40.903Z,99821.00
2023-02-24T11:04:33.433Z,99825.00
2023-02-24T11:07:12.913Z,99820.00
2023-02-24T11:09:52.037Z,99819.00
2023-02-24T11:12:44.926Z,99820.00
2023-02-24T11:15:43.481Z,99808.00
2023-02-24T11:18:21.520Z,99818.00
2023-02-24T11:20:54.523Z,99805.00
2023-02-24T11:23:38.271Z,99793.00
2023-02-24T11:26:23.511Z,99789.00
2023-02-24T11:29:17.506Z,99787.00
2023-02-24T11:32:35.457Z,99770.00
2023-02-24T11:35:21.172Z,99776.00
2023-02-24T11:38:17.721Z,99772.00
2023-02-24T11:40:51.659Z,99757.00
2023-02-24T11:43:26.459Z,99767.00
2023-02-24T11:46:07.339Z,99754.00
2023-02-24T11:48:43.040Z,99760.00
2023-02-24T11:51:27.018Z,99747.00
2023-02-24T11:54:05.928Z,99730.00
2023-02-24T11:56:53.236Z,99725.00
2023-02-24T11:59:33.062Z,99719.00
2023-02-24T12:02:30.949Z,99724.00
2023-02-24T12:05:13.054Z,99718.00
2023-02-24T12:08:02.769Z,99704.00
2023-02-24T12:10:35.974Z,99700.00
2023-02-24T12:13:14.050Z,99700.00
2023-02-24T12:15:55.474Z,99687.00
2023-02-24T12:18:31.888Z,99689.00
2023-02-24T12:21:11.738Z,99684.00
2023-02-24T12:23:44.146Z,99681.00
2023-02-24T12:26:27.169Z,99672.00
2023-02-24T12:29:42.332Z,99674.00
2023-02-24T12:32:41.298Z,99669.00
2023-02-24T12:35:44.632Z,99667.00
2023-02-24T12:38:38.388Z,99666.00
2023-02-24T12:41:32.897Z,99660.00
2023-02-24T12:44:35.987Z,99644.00
2023-02-24T12:47:13.242Z,99646.00
2023-02-24T12:50:09.173Z,99647.00
2023-02-24T12:53:35.161Z,99637.00
2023-02-24T12:56:23.600Z,99629.00
2023-02-24T12:59:05.342Z,99616.00
2023-02-24T13:02:05.024Z,99605.00
2023-02-24T13:04:56.636Z,99612.00
2023-02-24T13:07:52.675Z,99598.00
2023-02-24T13:10:46.708Z,99588.00
2023-02-24T13:13:27.483Z,99586.00
2023-02-24T13:15:58.045Z,99576.00
2023-02-24T13:18:35.323Z,99569.00
2023-02-24T13:21:14.471Z,99567.00
2023-02-24T13:23:52.287Z,99565.00
2023-02-24T13:26:24.975Z,99553.00
2023-02-24T13:29:15.515Z,99552.00
2023-02-24T13:31:49.797Z,99555.00
2023-02-24T13:34:44.770Z,99552.00
2023-02-24T13:37:11.538Z,99533.00
2023-02-24T13:39:41.502Z,99544.00
2023-02-24T13:42:20.342Z,99536.00
2023-02-24T13:45:19.175Z,99526.00
2023-02-24T13:48:00.725Z,99528.00
2023-02-24T13:50:51.920Z,99520.00
2023-02-24T13:54:06.548Z,99512.00
2023-02-24T13:56:51.197Z,99509.00
2023-02-24T13:59:48.189Z,99506.00
2023-02-24T14:02:22.895Z,99508.00
2023-02-24T14:04:53.598Z,99506.00
2023-02-24T14:07:35.658Z,99501.00
2023-02-24T14:10:14.684Z,99492.00
2023-02-24T14:12:43.232Z,99493.00
2023-02-24T14:15:20.021Z,99496.00
2023-02-24T14:18:00.226Z,99485.00
2023-02-24T14:20:34.792Z,99488.00
2023-02-24T14:23:02.010Z,99476.00
2023-02-24T14:25:39.220Z,99482.00
2023-02-24T14:28:06.371Z,99472.00
2023-02-24T14:30:40.826Z,99464.00
2023-02-24T14:33:24.218Z,99468.00
2023-02-24T14:35:50.973Z,99468.00
2023-02-24T14:38:34.292Z,99468.00
2023-02-24T14:41:04.733Z,99467.00
2023-02-24T14:43:32.037Z,99445.00
2023-02-24T14:46:05.645Z,99450.00
2023-02-24T14:48:32.517Z,99440.00
2023-02-24T14:51:09.656Z,99446.00
2023-02-24T14:53:46.060Z,99432.00
2023-02-24T14:56:14.058Z,99434.00
2023-02-24T14:58:51.254Z,99438.00
2023-02-24T15:01:21.298Z,99418.00
2023-02-24T15:03:57.038Z,99417.00
2023-02-24T15:06:32.410Z,99409.00
2023-02-24T15:09:18.617Z,99416.00
2023-02-24T15:11:45.466Z,99408.00
2023-02-24T15:14:32.296Z,99407.00
2023-02-24T15:17:14.687Z,99405.00
2023-02-24T15:19:47.133Z,99392.00
2023-02-24T15:22:27.187Z,99385.00
2023-02-24T15:25:16.620Z,99389.00
2023-02-24T15:28:02.888Z,99369.00
2023-02-24T15:30:39.231Z,99366.00
2023-02-24T15:33:24.431Z,99367.00
2023-02-24T15:35:58.415Z,99361.00
2023-02-24T15:38:36.941Z,99353.00
2023-02-24T15:41:06.043Z,99356.00
2023-02-24T15:43:45.659Z,99346.00
2023-02-24T15:46:30.709Z,99348.00
2023-02-24T15:49:02.870Z,99329.00
2023-02-24T15:51:38.880Z,99335.00
2023-02-24T15:54:12.878Z,99331.00
2023-02-24T15:56:40.741Z,99329.00
2023-02-24T15:59:21.229Z,99331.00
2023-02-24T16:01:48.339Z,99326.00
2023-02-24T16:04:15.108Z,99321.00
2023-02-24T16:06:54.572Z,99317.00
2023-02-24T16:09:39.388Z,99317.00
2023-02-24T16:12:22.327Z,99319.00
2023-02-24T16:14:50.514Z,99316.00
2023-02-24T16:17:29.988Z,99309.00
2023-02-24T16:19:56.875Z,99314.00
2023-02-24T16:22:24.573Z,99315.00
2023-02-24T16:24:51.432Z,99311.00
2023-02-24T16:27:21.927Z,99307.00
2023-02-24T16:29:51.090Z,99292.00
2023-02-24T16:32:17.998Z,99292.00
2023-02-24T16:34:44.845Z,99299.00
2023-02-24T16:37:26.794Z,99291.00
2023-02-24T16:39:53.692Z,99282.00
2023-02-24T16:42:21.897Z,99289.00
2023-02-24T16:44:49.686Z,99283.00
2023-02-24T16:47:23.024Z,99273.00
2023-02-24T16:49:51.080Z,99273.00
2023-02-24T16:52:22.874Z,99267.00
2023-02-24T16:54:49.605Z,99272.00
2023-02-24T16:57:16.845Z,99271.00
2023-02-24T16:59:44.348Z,99268.00
2023-02-24T17:02:21.842Z,99266.00
2023-02-24T17:04:49.838Z,99265.00
2023-02-24T17:07:18.957Z,99270.00
2023-02-24T17:09:45.716Z,99269.00
2023-02-24T17:12:16.688Z,99265.00
2023-02-24T17:14:43.412Z,99259.00
2023-02-24T17:17:11.575Z,99253.00
2023-02-24T17:19:39.286Z,99244.00
2023-02-24T17:22:06.271Z,99243.00
2023-02-24T17:24:33.047Z,99247.00
2023-02-24T17:27:00.477Z,99255.00
2023-02-24T17:29:27.673Z,99237.00
2023-02-24T17:31:54.581Z,99247.00
2023-02-24T17:34:23.898Z,99242.00
2023-02-24T17:36:50.645Z,99234.00
2023-02-24T17:39:17.405Z,99226.00
2023-02-24T17:41:44.238Z,99225.00
2023-02-24T17:44:10.967Z,99234.00
2023-02-24T17:46:38.632Z,99224.00
2023-02-24T17:49:05.860Z,99228.00
2023-02-24T17:51:32.586Z,99221.00
2023-02-24T17:53:59.367Z,99215.00
2023-02-24T17:56:26.224Z,99219.00
2023-02-24T17:58:58.590Z,99209.00
2023-02-24T18:01:27.538Z,99210.00
2023-02-24T18:03:57.304Z,99211.00
2023-02-24T18:06:25.432Z,99205.00
2023-02-24T18:08:52.209Z,99201.00
2023-02-24T18:11:19.771Z,99193.00
2023-02-24T18:13:50.698Z,99189.00
2023-02-24T18:16:17.877Z,99174.00
2023-02-24T18:18:44.806Z,99174.00
2023-02-24T18:21:11.626Z,99174.00
2023-02-24T18:23:40.334Z,99172.00
2023-02-24T18:26:09.822Z,99168.00
2023-02-24T18:28:37.456Z,99174.00
2023-02-24T18:31:17.197Z,99168.00
2023-02-24T18:33:45.194Z,99166.00
2023-02-24T18:36:13.131Z,99159.00
2023-02-24T18:38:40.298Z,99159.00
2023-02-24T18:41:18.316Z,99156.00
2023-02-24T18:43:49.805Z,99163.00
2023-02-24T18:46:18.583Z,99152.00
2023-02-24T18:48:46.114Z,99143.00
2023-02-24T18:51:22.010Z,99150.00
2023-02-24T18:53:52.132Z,99147.00
2023-02-24T18:56:26.388Z,99147.00
2023-02-24T18:58:57.665Z,99133.00
2023-02-24T19:01:29.135Z,99147.00
2023-02-24T19:03:56.441Z,99135.00
2023-02-24T19:06:26.763Z,99130.00
2023-02-24T19:09:06.039Z,99124.00
2023-02-24T19:11:34.198Z,99116.00
2023-02-24T19:14:02.495Z,99123.00
2023-02-24T19:16:29.912Z,99117.00
2023-02-24T19:18:59.953Z,99123.00
2023-02-24T19:21:30.590Z,99116.00
2023-02-24T19:24:01.828Z,99119.00
2023-02-24T19:26:29.402Z,99110.00
2023-02-24T19:28:58.578Z,99109.00
2023-02-24T19:31:29.624Z,99101.00
2023-02-24T19:34:03.295Z,99096.00
2023-02-24T19:36:32.844Z,99100.00
2023-02-24T19:39:00.407Z,99088.00
2023-02-24T19:41:28.054Z,99084.00
2023-02-24T19:43:55.295Z,99085.00
2023-02-24T19:46:22.903Z,99083.00
2023-02-24T19:48:49.950Z,99070.00
2023-02-24T19:51:21.154Z,99080.00
2023-02-24T19:53:51.379Z,99079.00
2023-02-24T19:56:22.385Z,99078.00
2023-02-24T19:58:54.470Z,99075.00
2023-02-24T20:01:22.746Z,99074.00
2023-02-24T20:03:50.382Z,99064.00
2023-02-24T20:06:26.865Z,99061.00
2023-02-24T20:08:54.470Z,99062.00
2023-02-24T20:11:22.452Z,99053.00
2023-02-24T20:13:53.047Z,99040.00
2023-02-24T20:16:24.977Z,99061.00
2023-02-24T20:18:54.500Z,99058.00
2023-02-24T20:21:21.244Z,99047.00
2023-02-24T20:23:47.970Z,99056.00
2023-02-24T20:26:16.246Z,99051.00
2023-02-24T20:28:45.383Z,99041.00
2023-02-24T20:31:18.486Z,99039.00
2023-02-24T20:33:49.345Z,99052.00
2023-02-24T20:36:23.892Z,99041.00
2023-02-24T20:38:52.112Z,99034.00
2023-02-24T20:41:21.232Z,99028.00
2023-02-24T20:43:49.019Z,99034.00
2023-02-24T20:46:24.134Z,99030.00
2023-02-24T20:48:54.793Z,99041.00
2023-02-24T20:51:23.079Z,99026.00
2023-02-24T20:53:57.741Z,99020.00
2023-02-24T20:56:27.720Z,99017.00
2023-02-24T20:59:01.030Z,99007.00
2023-02-24T21:01:30.732Z,99013.00
2023-02-24T21:03:59.142Z,99010.00
2023-02-24T21:06:26.904Z,99009.00
2023-02-24T21:08:54.001Z,99010.00
2023-02-24T21:11:21.992Z,99007.00
2023-02-24T21:13:51.178Z,99004.00
2023-02-24T21:16:20.279Z,99001.00
2023-02-24T21:18:49.471Z,98983.00
2023-02-24T21:21:17.411Z,98993.00
2023-02-24T21:23:44.658Z,98986.00
2023-02-24T21:26:12.547Z,98978.00
2023-02-24T21:28:43.326Z,98974.00
2023-02-24T21:31:13.969Z,98975.00
2023-02-24T21:33:41.465Z,98971.00
2023-02-24T21:36:13.648Z,98972.00
2023-02-24T21:38:41.327Z,98959.00
2023-02-24T21:41:14.603Z,98967.00
2023-02-24T21:43:44.141Z,98949.00
2023-02-24T21:46:13.198Z,98960.00
2023-02-24T21:48:44.799Z,98965.00
2023-02-24T21:51:13.620Z,98957.00
2023-02-24T21:53:44.448Z,98959.00
2023-02-24T21:56:21.059Z,98949.00
2023-02-24T21:58:56.956Z,98947.00
2023-02-24T22:01:30.306Z,98946.00
2023-02-24T22:04:01.283Z,98938.00
2023-02-24T22:06:31.794Z,98931.00
2023-02-24T22:08:59.986Z,98937.00
2023-02-24T22:11:26.933Z,98930.00
2023-02-24T22:13:54.153Z,98929.00
2023-02-24T22:16:24.272Z,98920.00
2023-02-24T22:18:53.316Z,98911.00
2023-02-24T22:21:24.474Z,98918.00
2023-02-24T22:23:57.944Z,98920.00
2023-02-24T22:26:26.834Z,98918.00
2023-02-24T22:28:54.782Z,98907.00
2023-02-24T22:31:25.815Z,98912.00
2023-02-24T22:33:53.429Z,98918.00
2023-02-24T22:36:27.623Z,98915.00
2023-02-24T22:39:00.253Z,98912.00
2023-02-24T22:41:33.918Z,98905.00
2023-02-24T22:44:03.327Z,98908.00
2023-02-24T22:46:34.876Z,98912.00
2023-02-24T22:49:04.159Z,98909.00
2023-02-24T22:51:31.191Z,98905.00
2023-02-24T22:53:58.109Z,98902.00
2023-02-24T22:56:29.047Z,98909.00
2023-02-24T22:58:56.819Z,98907.00
2023-02-24T23:01:33.316Z,98901.00
2023-02-24T23:04:03.017Z,98896.00
2023-02-24T23:06:31.866Z,98907.00
2023-02-24T23:09:01.429Z,98886.00
2023-02-24T23:11:32.173Z,98893.00
2023-02-24T23:14:02.354Z,98893.00
2023-02-24T23:16:34.118Z,98897.00
2023-02-24T23:19:10.520Z,98899.00
2023-02-24T23:21:41.474Z,98904.00
2023-02-24T23:24:11.432Z,98893.00
2023-02-24T23:26:57.532Z,98883.00
2023-02-24T23:29:26.458Z,98889.00
2023-02-24T23:31:53.734Z,98893.00
2023-02-24T23:34:20.923Z,98886.00
2023-02-24T23:36:47.957Z,98891.00
2023-02-24T23:39:20.469Z,98883.00
2023-02-24T23:41:47.677Z,98888.00
2023-02-24T23:44:14.587Z,98891.00
2023-02-24T23:46:41.780Z,98887.00
2023-02-24T23:49:15.918Z,98880.00
2023-02-24T23:51:48.474Z,98877.00
2023-02-24T23:54:18.041Z,98870.00
2023-02-24T23:56:46.360Z,98872.00
2023-02-24T23:59:13.129Z,98873.00
